^^
Saratoga-Weather Station Historical Data
Daily Summary for November 4, 2021 Units:  Both    English   Metric
Daily Weekly Monthly Yearly Custom
  High: Low: Average:
Temperature: 46.8 °F /  8.2 °C 41.4 °F /  5.2 °C 43.7 °F /  6.5 °C
Dew Point: 43.5 °F /  6.4 °C 39.7 °F /  4.3 °C 41.5 °F /  5.3 °C
Humidity: 95% 87% 92%
Wind Speed: 13mph /  20.9km/h - 4mph /  6.4km/h
Wind Gust: 14mph /  22.5km/h - -
Wind- - West
Pressure: 30 in /  1014.2 hPa 29.6 in /  1001.7 hPa -
Precipitation: 0.03 in /  0.8 mm    
Historical Graphs
 
 
Tabular Data for November 4, 2021
Time Temperature Dew Point Pressure Wind Wind Speed Wind Gust Humidity Rainfall Rate (Hourly) solar
00:02 42.4 °F /  5.8 °C 40.3 °F /  4.6 °C 29.6in /  1001.7hPa WNW 2.9mph /  4.7km/h 7mph /  11.3km/h 92% 0in /  0.0mm 0 W/m2
00:07 42.4 °F /  5.8 °C 40.3 °F /  4.6 °C 29.6in /  1001.7hPa WNW 6.9mph /  11.1km/h 8mph /  12.9km/h 92% 0in /  0.0mm 0 W/m2
00:12 42.4 °F /  5.8 °C 40.3 °F /  4.6 °C 29.6in /  1001.7hPa West 4mph /  6.4km/h 12mph /  19.3km/h 92% 0in /  0.0mm 0 W/m2
00:17 42.6 °F /  5.9 °C 40.1 °F /  4.5 °C 29.6in /  1001.7hPa WSW 4mph /  6.4km/h 8mph /  12.9km/h 91% 0in /  0.0mm 0 W/m2
00:22 42.4 °F /  5.8 °C 39.9 °F /  4.4 °C 29.6in /  1002.0hPa WSW 4mph /  6.4km/h 12mph /  19.3km/h 91% 0in /  0.0mm 0 W/m2
00:27 42.4 °F /  5.8 °C 39.9 °F /  4.4 °C 29.6in /  1002.0hPa West 4mph /  6.4km/h 8mph /  12.9km/h 91% 0in /  0.0mm 0 W/m2
00:32 42.4 °F /  5.8 °C 39.9 °F /  4.4 °C 29.6in /  1002.0hPa West 6mph /  9.7km/h 12mph /  19.3km/h 91% 0in /  0.0mm 0 W/m2
00:37 42.4 °F /  5.8 °C 40.3 °F /  4.6 °C 29.6in /  1002.0hPa West 2.9mph /  4.7km/h 8mph /  12.9km/h 92% 0in /  0.0mm 0 W/m2
00:42 42.4 °F /  5.8 °C 40.3 °F /  4.6 °C 29.6in /  1002.0hPa NW 8.1mph /  13km/h 10mph /  16.1km/h 92% 0in /  0.0mm 0 W/m2
00:47 42.4 °F /  5.8 °C 40.3 °F /  4.6 °C 29.6in /  1002.0hPa WNW 4.9mph /  7.9km/h 6mph /  9.7km/h 92% 0.01in /  0.2mm 0 W/m2
00:52 42.4 °F /  5.8 °C 40.3 °F /  4.6 °C 29.6in /  1002.0hPa WNW 2.9mph /  4.7km/h 7mph /  11.3km/h 92% 0.01in /  0.2mm 0 W/m2
00:57 42.3 °F /  5.7 °C 40.1 °F /  4.5 °C 29.6in /  1002.0hPa WNW 6mph /  9.7km/h 8mph /  12.9km/h 92% 0.02in /  0.5mm 0 W/m2
01:02 42.3 °F /  5.7 °C 40.5 °F /  4.7 °C 29.6in /  1002.0hPa West 6mph /  9.7km/h 10mph /  16.1km/h 93% 0.02in /  0.5mm 0 W/m2
01:07 42.3 °F /  5.7 °C 40.5 °F /  4.7 °C 29.6in /  1002.0hPa NW 2.9mph /  4.7km/h 6mph /  9.7km/h 93% 0.02in /  0.5mm 0 W/m2
01:12 42.4 °F /  5.8 °C 40.6 °F /  4.8 °C 29.6in /  1002.0hPa WNW 4mph /  6.4km/h 6mph /  9.7km/h 93% 0.02in /  0.5mm 0 W/m2
01:17 42.3 °F /  5.7 °C 40.5 °F /  4.7 °C 29.6in /  1002.0hPa West 2.9mph /  4.7km/h 6mph /  9.7km/h 93% 0.02in /  0.5mm 0 W/m2
01:22 42.3 °F /  5.7 °C 40.5 °F /  4.7 °C 29.6in /  1002.0hPa WNW 2.9mph /  4.7km/h 6mph /  9.7km/h 93% 0.02in /  0.5mm 0 W/m2
01:27 42.4 °F /  5.8 °C 40.6 °F /  4.8 °C 29.6in /  1002.0hPa WNW 2mph /  3.2km/h 7mph /  11.3km/h 93% 0.02in /  0.5mm 0 W/m2
01:32 42.4 °F /  5.8 °C 40.6 °F /  4.8 °C 29.6in /  1002.0hPa WSW 4.9mph /  7.9km/h 6mph /  9.7km/h 93% 0.02in /  0.5mm 0 W/m2
01:37 42.4 °F /  5.8 °C 40.6 °F /  4.8 °C 29.6in /  1002.0hPa WNW 2.9mph /  4.7km/h 7mph /  11.3km/h 93% 0.02in /  0.5mm 0 W/m2
01:42 42.4 °F /  5.8 °C 40.6 °F /  4.8 °C 29.6in /  1002.0hPa WSW 2.9mph /  4.7km/h 6mph /  9.7km/h 93% 0.02in /  0.5mm 0 W/m2
01:47 42.4 °F /  5.8 °C 40.6 °F /  4.8 °C 29.6in /  1002.0hPa West 2mph /  3.2km/h 7mph /  11.3km/h 93% 0.01in /  0.2mm 0 W/m2
01:52 42.4 °F /  5.8 °C 40.6 °F /  4.8 °C 29.6in /  1002.0hPa NW 2.9mph /  4.7km/h 8mph /  12.9km/h 93% 0.01in /  0.2mm 0 W/m2
01:57 42.4 °F /  5.8 °C 40.6 °F /  4.8 °C 29.6in /  1002.4hPa WSW 2.9mph /  4.7km/h 7mph /  11.3km/h 93% 0in /  0.0mm 0 W/m2
02:02 42.4 °F /  5.8 °C 40.6 °F /  4.8 °C 29.6in /  1002.4hPa WNW 2mph /  3.2km/h 8mph /  12.9km/h 93% 0in /  0.0mm 0 W/m2
02:07 42.4 °F /  5.8 °C 40.6 °F /  4.8 °C 29.6in /  1002.4hPa WNW 2mph /  3.2km/h 7mph /  11.3km/h 93% 0.01in /  0.2mm 0 W/m2
02:12 42.6 °F /  5.9 °C 40.8 °F /  4.9 °C 29.6in /  1002.4hPa WNW 4mph /  6.4km/h 9mph /  14.5km/h 93% 0.01in /  0.2mm 0 W/m2
02:17 42.6 °F /  5.9 °C 40.5 °F /  4.7 °C 29.6in /  1002.4hPa WNW 2mph /  3.2km/h 9mph /  14.5km/h 92% 0.01in /  0.2mm 0 W/m2
02:22 42.6 °F /  5.9 °C 40.5 °F /  4.7 °C 29.6in /  1002.4hPa West 2.9mph /  4.7km/h 6mph /  9.7km/h 92% 0.01in /  0.2mm 0 W/m2
02:27 42.6 °F /  5.9 °C 40.5 °F /  4.7 °C 29.6in /  1002.0hPa WNW 2.9mph /  4.7km/h 6mph /  9.7km/h 92% 0.01in /  0.2mm 0 W/m2
02:32 42.6 °F /  5.9 °C 40.5 °F /  4.7 °C 29.6in /  1002.0hPa WNW 2mph /  3.2km/h 7mph /  11.3km/h 92% 0.01in /  0.2mm 0 W/m2
02:37 42.6 °F /  5.9 °C 40.5 °F /  4.7 °C 29.6in /  1002.0hPa NW 4mph /  6.4km/h 10mph /  16.1km/h 92% 0.01in /  0.2mm 0 W/m2
02:42 42.6 °F /  5.9 °C 40.5 °F /  4.7 °C 29.6in /  1002.4hPa West 4mph /  6.4km/h 5mph /  8km/h 92% 0.01in /  0.2mm 0 W/m2
02:47 42.6 °F /  5.9 °C 40.5 °F /  4.7 °C 29.6in /  1002.7hPa WSW 2.9mph /  4.7km/h 4mph /  6.4km/h 92% 0.01in /  0.2mm 0 W/m2
02:52 42.6 °F /  5.9 °C 40.5 °F /  4.7 °C 29.6in /  1002.7hPa WNW 2.9mph /  4.7km/h 10mph /  16.1km/h 92% 0.01in /  0.2mm 0 W/m2
02:57 42.6 °F /  5.9 °C 40.5 °F /  4.7 °C 29.6in /  1002.7hPa West 6mph /  9.7km/h 9mph /  14.5km/h 92% 0.01in /  0.2mm 0 W/m2
03:02 42.6 °F /  5.9 °C 40.5 °F /  4.7 °C 29.6in /  1002.7hPa West 2.9mph /  4.7km/h 8mph /  12.9km/h 92% 0.01in /  0.2mm 0 W/m2
03:07 42.6 °F /  5.9 °C 40.5 °F /  4.7 °C 29.6in /  1002.7hPa WNW 6.9mph /  11.1km/h 9mph /  14.5km/h 92% 0in /  0.0mm 0 W/m2
03:12 42.6 °F /  5.9 °C 40.5 °F /  4.7 °C 29.6in /  1002.7hPa West 6mph /  9.7km/h 9mph /  14.5km/h 92% 0in /  0.0mm 0 W/m2
03:17 42.8 °F /  6 °C 40.6 °F /  4.8 °C 29.6in /  1002.7hPa West 2.9mph /  4.7km/h 11mph /  17.7km/h 92% 0in /  0.0mm 0 W/m2
03:22 42.8 °F /  6 °C 40.6 °F /  4.8 °C 29.6in /  1002.7hPa WNW 4mph /  6.4km/h 9mph /  14.5km/h 92% 0in /  0.0mm 0 W/m2
03:27 42.8 °F /  6 °C 40.6 °F /  4.8 °C 29.6in /  1002.7hPa WSW 6.9mph /  11.1km/h 11mph /  17.7km/h 92% 0in /  0.0mm 0 W/m2
03:32 42.6 °F /  5.9 °C 40.5 °F /  4.7 °C 29.6in /  1002.7hPa WSW 2.9mph /  4.7km/h 9mph /  14.5km/h 92% 0in /  0.0mm 0 W/m2
03:37 42.6 °F /  5.9 °C 40.5 °F /  4.7 °C 29.6in /  1002.7hPa WNW 8.9mph /  14.3km/h 9mph /  14.5km/h 92% 0in /  0.0mm 0 W/m2
03:42 42.6 °F /  5.9 °C 40.5 °F /  4.7 °C 29.6in /  1002.7hPa WNW 4.9mph /  7.9km/h 8mph /  12.9km/h 92% 0in /  0.0mm 0 W/m2
03:47 42.6 °F /  5.9 °C 40.5 °F /  4.7 °C 29.6in /  1002.7hPa West 8.9mph /  14.3km/h 11mph /  17.7km/h 92% 0in /  0.0mm 0 W/m2
03:53 42.6 °F /  5.9 °C 40.5 °F /  4.7 °C 29.6in /  1002.7hPa SW 10.1mph /  16.3km/h 13mph /  20.9km/h 92% 0in /  0.0mm 0 W/m2
03:58 42.8 °F /  6 °C 40.6 °F /  4.8 °C 29.6in /  1002.7hPa West 6mph /  9.7km/h 10mph /  16.1km/h 92% 0in /  0.0mm 0 W/m2
04:03 42.8 °F /  6 °C 40.6 °F /  4.8 °C 29.6in /  1002.7hPa NW 8.1mph /  13km/h 10mph /  16.1km/h 92% 0in /  0.0mm 0 W/m2
04:08 43 °F /  6.1 °C 40.8 °F /  4.9 °C 29.6in /  1002.7hPa WSW 11mph /  17.7km/h 11mph /  17.7km/h 92% 0in /  0.0mm 0 W/m2
04:13 42.8 °F /  6 °C 40.6 °F /  4.8 °C 29.6in /  1002.7hPa WNW 6.9mph /  11.1km/h 10mph /  16.1km/h 92% 0in /  0.0mm 0 W/m2
04:18 42.6 °F /  5.9 °C 40.5 °F /  4.7 °C 29.6in /  1002.7hPa West 6.9mph /  11.1km/h 12mph /  19.3km/h 92% 0in /  0.0mm 0 W/m2
04:23 42.6 °F /  5.9 °C 40.5 °F /  4.7 °C 29.6in /  1002.7hPa West 6mph /  9.7km/h 11mph /  17.7km/h 92% 0in /  0.0mm 0 W/m2
04:28 42.4 °F /  5.8 °C 40.3 °F /  4.6 °C 29.6in /  1002.7hPa West 6.9mph /  11.1km/h 12mph /  19.3km/h 92% 0in /  0.0mm 0 W/m2
04:33 42.3 °F /  5.7 °C 40.1 °F /  4.5 °C 29.6in /  1002.7hPa West 8.9mph /  14.3km/h 12mph /  19.3km/h 92% 0in /  0.0mm 0 W/m2
04:38 42.3 °F /  5.7 °C 40.1 °F /  4.5 °C 29.6in /  1002.7hPa WNW 6.9mph /  11.1km/h 9mph /  14.5km/h 92% 0in /  0.0mm 0 W/m2
04:43 42.3 °F /  5.7 °C 40.5 °F /  4.7 °C 29.6in /  1002.7hPa WSW 4mph /  6.4km/h 12mph /  19.3km/h 93% 0in /  0.0mm 0 W/m2
04:48 42.3 °F /  5.7 °C 40.1 °F /  4.5 °C 29.6in /  1003.0hPa NW 4.9mph /  7.9km/h 8mph /  12.9km/h 92% 0in /  0.0mm 0 W/m2
04:53 42.1 °F /  5.6 °C 40.3 °F /  4.6 °C 29.6in /  1003.0hPa SW 6.9mph /  11.1km/h 10mph /  16.1km/h 93% 0in /  0.0mm 0 W/m2
04:58 42.1 °F /  5.6 °C 40.3 °F /  4.6 °C 29.6in /  1003.0hPa West 6mph /  9.7km/h 13mph /  20.9km/h 93% 0in /  0.0mm 0 W/m2
05:03 42.1 °F /  5.6 °C 40.3 °F /  4.6 °C 29.6in /  1003.0hPa West 6.9mph /  11.1km/h 12mph /  19.3km/h 93% 0in /  0.0mm 0 W/m2
05:08 42.1 °F /  5.6 °C 40.3 °F /  4.6 °C 29.6in /  1003.4hPa West 8.9mph /  14.3km/h 10mph /  16.1km/h 93% 0in /  0.0mm 0 W/m2
05:13 42.1 °F /  5.6 °C 40.3 °F /  4.6 °C 29.6in /  1003.4hPa NW 4mph /  6.4km/h 9mph /  14.5km/h 93% 0in /  0.0mm 0 W/m2
05:18 42.3 °F /  5.7 °C 40.5 °F /  4.7 °C 29.6in /  1003.4hPa WNW 4.9mph /  7.9km/h 10mph /  16.1km/h 93% 0in /  0.0mm 0 W/m2
05:23 42.3 °F /  5.7 °C 40.5 °F /  4.7 °C 29.6in /  1003.4hPa West 6.9mph /  11.1km/h 10mph /  16.1km/h 93% 0in /  0.0mm 0 W/m2
05:28 42.3 °F /  5.7 °C 40.5 °F /  4.7 °C 29.6in /  1003.4hPa West 6.9mph /  11.1km/h 11mph /  17.7km/h 93% 0in /  0.0mm 0 W/m2
05:33 42.4 °F /  5.8 °C 40.6 °F /  4.8 °C 29.6in /  1003.4hPa West 8.9mph /  14.3km/h 11mph /  17.7km/h 93% 0in /  0.0mm 0 W/m2
05:38 42.4 °F /  5.8 °C 40.6 °F /  4.8 °C 29.6in /  1003.4hPa WNW 6.9mph /  11.1km/h 9mph /  14.5km/h 93% 0in /  0.0mm 0 W/m2
05:43 42.4 °F /  5.8 °C 40.6 °F /  4.8 °C 29.6in /  1003.7hPa WNW 2.9mph /  4.7km/h 12mph /  19.3km/h 93% 0in /  0.0mm 0 W/m2
05:48 42.4 °F /  5.8 °C 40.6 °F /  4.8 °C 29.6in /  1003.7hPa WSW 8.1mph /  13km/h 10mph /  16.1km/h 93% 0in /  0.0mm 0 W/m2
05:53 42.4 °F /  5.8 °C 40.6 °F /  4.8 °C 29.6in /  1003.7hPa WSW 6.9mph /  11.1km/h 12mph /  19.3km/h 93% 0in /  0.0mm 0 W/m2
05:58 42.3 °F /  5.7 °C 40.5 °F /  4.7 °C 29.6in /  1003.7hPa WSW 4mph /  6.4km/h 9mph /  14.5km/h 93% 0in /  0.0mm 0 W/m2
06:03 42.3 °F /  5.7 °C 40.5 °F /  4.7 °C 29.6in /  1003.7hPa West 8.9mph /  14.3km/h 9mph /  14.5km/h 93% 0in /  0.0mm 0 W/m2
06:08 42.1 °F /  5.6 °C 40.3 °F /  4.6 °C 29.6in /  1003.7hPa West 6mph /  9.7km/h 9mph /  14.5km/h 93% 0in /  0.0mm 0 W/m2
06:13 42.1 °F /  5.6 °C 40.3 °F /  4.6 °C 29.6in /  1003.7hPa West 6mph /  9.7km/h 9mph /  14.5km/h 93% 0in /  0.0mm 0 W/m2
06:18 42.1 °F /  5.6 °C 40.3 °F /  4.6 °C 29.6in /  1003.7hPa West 6mph /  9.7km/h 12mph /  19.3km/h 93% 0in /  0.0mm 0 W/m2
06:23 42.1 °F /  5.6 °C 40.3 °F /  4.6 °C 29.6in /  1003.7hPa NW 4.9mph /  7.9km/h 11mph /  17.7km/h 93% 0in /  0.0mm 0 W/m2
06:28 42.1 °F /  5.6 °C 40.3 °F /  4.6 °C 29.7in /  1004.1hPa WNW 6.9mph /  11.1km/h 12mph /  19.3km/h 93% 0in /  0.0mm 0 W/m2
06:33 42.1 °F /  5.6 °C 40.3 °F /  4.6 °C 29.7in /  1004.1hPa WNW 4mph /  6.4km/h 9mph /  14.5km/h 93% 0in /  0.0mm 0 W/m2
06:38 41.7 °F /  5.4 °C 39.9 °F /  4.4 °C 29.7in /  1004.1hPa WNW 8.1mph /  13km/h 12mph /  19.3km/h 93% 0in /  0.0mm 0 W/m2
06:43 41.7 °F /  5.4 °C 39.9 °F /  4.4 °C 29.7in /  1004.1hPa NW 4mph /  6.4km/h 10mph /  16.1km/h 93% 0in /  0.0mm 0 W/m2
06:48 41.5 °F /  5.3 °C 39.7 °F /  4.3 °C 29.7in /  1004.1hPa WSW 8.1mph /  13km/h 11mph /  17.7km/h 93% 0in /  0.0mm 0 W/m2
06:53 41.5 °F /  5.3 °C 39.9 °F /  4.4 °C 29.7in /  1004.1hPa WSW 4mph /  6.4km/h 12mph /  19.3km/h 94% 0in /  0.0mm 0 W/m2
06:58 41.7 °F /  5.4 °C 39.9 °F /  4.4 °C 29.7in /  1004.1hPa West 6mph /  9.7km/h 12mph /  19.3km/h 93% 0in /  0.0mm 0 W/m2
07:03 41.7 °F /  5.4 °C 39.9 °F /  4.4 °C 29.7in /  1004.1hPa West 6mph /  9.7km/h 11mph /  17.7km/h 93% 0in /  0.0mm 0 W/m2
07:08 41.7 °F /  5.4 °C 39.9 °F /  4.4 °C 29.7in /  1004.1hPa WNW 4mph /  6.4km/h 11mph /  17.7km/h 93% 0in /  0.0mm 0 W/m2
07:13 41.7 °F /  5.4 °C 39.9 °F /  4.4 °C 29.7in /  1004.4hPa WSW 10.1mph /  16.3km/h 10mph /  16.1km/h 93% 0in /  0.0mm 0 W/m2
07:18 41.7 °F /  5.4 °C 39.9 °F /  4.4 °C 29.7in /  1004.4hPa West 8.1mph /  13km/h 12mph /  19.3km/h 93% 0in /  0.0mm 0 W/m2
07:23 41.5 °F /  5.3 °C 39.7 °F /  4.3 °C 29.7in /  1004.4hPa WNW 10.1mph /  16.3km/h 10mph /  16.1km/h 93% 0in /  0.0mm 0 W/m2
07:28 41.5 °F /  5.3 °C 39.7 °F /  4.3 °C 29.7in /  1004.4hPa West 8.9mph /  14.3km/h 9mph /  14.5km/h 93% 0in /  0.0mm 0 W/m2
07:33 41.5 °F /  5.3 °C 39.9 °F /  4.4 °C 29.7in /  1004.4hPa WSW 4mph /  6.4km/h 9mph /  14.5km/h 94% 0in /  0.0mm 0 W/m2
07:38 41.4 °F /  5.2 °C 39.7 °F /  4.3 °C 29.7in /  1004.4hPa WSW 4.9mph /  7.9km/h 9mph /  14.5km/h 94% 0in /  0.0mm 0 W/m2
07:43 41.5 °F /  5.3 °C 39.9 °F /  4.4 °C 29.7in /  1004.7hPa West 8.1mph /  13km/h 9mph /  14.5km/h 94% 0in /  0.0mm 5 W/m2
07:48 41.5 °F /  5.3 °C 39.9 °F /  4.4 °C 29.7in /  1004.7hPa West 2.9mph /  4.7km/h 8mph /  12.9km/h 94% 0in /  0.0mm 5 W/m2
07:53 41.5 °F /  5.3 °C 39.9 °F /  4.4 °C 29.7in /  1004.7hPa WSW 2.9mph /  4.7km/h 8mph /  12.9km/h 94% 0in /  0.0mm 5 W/m2
07:58 41.5 °F /  5.3 °C 39.9 °F /  4.4 °C 29.7in /  1004.7hPa WSW 4.9mph /  7.9km/h 7mph /  11.3km/h 94% 0in /  0.0mm 7 W/m2
08:03 41.7 °F /  5.4 °C 40.1 °F /  4.5 °C 29.7in /  1005.1hPa NW 6.9mph /  11.1km/h 9mph /  14.5km/h 94% 0in /  0.0mm 7 W/m2
08:08 41.7 °F /  5.4 °C 40.1 °F /  4.5 °C 29.7in /  1005.1hPa West 2.9mph /  4.7km/h 7mph /  11.3km/h 94% 0in /  0.0mm 12 W/m2
08:13 41.7 °F /  5.4 °C 40.1 °F /  4.5 °C 29.7in /  1005.4hPa WNW 2.9mph /  4.7km/h 8mph /  12.9km/h 94% 0in /  0.0mm 16 W/m2
08:19 41.7 °F /  5.4 °C 40.1 °F /  4.5 °C 29.7in /  1005.4hPa NNW 4.9mph /  7.9km/h 6mph /  9.7km/h 94% 0in /  0.0mm 11 W/m2
08:24 41.7 °F /  5.4 °C 40.1 °F /  4.5 °C 29.7in /  1005.4hPa WSW 2.9mph /  4.7km/h 6mph /  9.7km/h 94% 0in /  0.0mm 12 W/m2
08:29 41.7 °F /  5.4 °C 40.1 °F /  4.5 °C 29.7in /  1005.8hPa WSW 8.9mph /  14.3km/h 9mph /  14.5km/h 94% 0in /  0.0mm 18 W/m2
08:34 41.7 °F /  5.4 °C 40.1 °F /  4.5 °C 29.7in /  1005.8hPa WSW 4.9mph /  7.9km/h 9mph /  14.5km/h 94% 0in /  0.0mm 49 W/m2
08:39 41.7 °F /  5.4 °C 40.1 °F /  4.5 °C 29.7in /  1005.8hPa West 4mph /  6.4km/h 6mph /  9.7km/h 94% 0in /  0.0mm 47 W/m2
08:44 41.9 °F /  5.5 °C 40.3 °F /  4.6 °C 29.7in /  1005.8hPa West 2mph /  3.2km/h 9mph /  14.5km/h 94% 0in /  0.0mm 51 W/m2
08:49 42.1 °F /  5.6 °C 40.5 °F /  4.7 °C 29.7in /  1005.8hPa West 2.9mph /  4.7km/h 7mph /  11.3km/h 94% 0in /  0.0mm 47 W/m2
08:54 42.3 °F /  5.7 °C 40.6 °F /  4.8 °C 29.7in /  1005.8hPa WNW 2.9mph /  4.7km/h 7mph /  11.3km/h 94% 0in /  0.0mm 42 W/m2
08:59 42.3 °F /  5.7 °C 40.6 °F /  4.8 °C 29.7in /  1005.8hPa NW 2.9mph /  4.7km/h 6mph /  9.7km/h 94% 0in /  0.0mm 58 W/m2
09:04 42.3 °F /  5.7 °C 40.6 °F /  4.8 °C 29.7in /  1006.1hPa WNW 4mph /  6.4km/h 8mph /  12.9km/h 94% 0in /  0.0mm 21 W/m2
09:10 42.3 °F /  5.7 °C 40.6 °F /  4.8 °C 29.7in /  1006.1hPa WNW 4.9mph /  7.9km/h 10mph /  16.1km/h 94% 0in /  0.0mm 21 W/m2
09:15 42.3 °F /  5.7 °C 40.6 °F /  4.8 °C 29.7in /  1006.1hPa West 4mph /  6.4km/h 7mph /  11.3km/h 94% 0in /  0.0mm 28 W/m2
09:20 42.3 °F /  5.7 °C 40.5 °F /  4.7 °C 29.7in /  1006.1hPa NW 8.1mph /  13km/h 10mph /  16.1km/h 93% 0in /  0.0mm 37 W/m2
09:25 42.3 °F /  5.7 °C 40.5 °F /  4.7 °C 29.7in /  1006.1hPa WNW 2mph /  3.2km/h 4mph /  6.4km/h 93% 0in /  0.0mm 25 W/m2
09:30 42.3 °F /  5.7 °C 40.5 °F /  4.7 °C 29.7in /  1006.4hPa WNW 6.9mph /  11.1km/h 10mph /  16.1km/h 93% 0in /  0.0mm 23 W/m2
09:35 42.3 °F /  5.7 °C 40.5 °F /  4.7 °C 29.7in /  1006.4hPa West 2.9mph /  4.7km/h 7mph /  11.3km/h 93% 0in /  0.0mm 32 W/m2
09:40 42.4 °F /  5.8 °C 40.6 °F /  4.8 °C 29.7in /  1006.4hPa WNW 4.9mph /  7.9km/h 9mph /  14.5km/h 93% 0in /  0.0mm 42 W/m2
09:45 42.4 °F /  5.8 °C 40.6 °F /  4.8 °C 29.7in /  1006.4hPa West 6mph /  9.7km/h 8mph /  12.9km/h 93% 0in /  0.0mm 44 W/m2
09:50 42.4 °F /  5.8 °C 40.6 °F /  4.8 °C 29.7in /  1006.4hPa WSW 6.9mph /  11.1km/h 10mph /  16.1km/h 93% 0in /  0.0mm 84 W/m2
09:55 42.6 °F /  5.9 °C 40.8 °F /  4.9 °C 29.7in /  1006.4hPa WSW 6.9mph /  11.1km/h 8mph /  12.9km/h 93% 0in /  0.0mm 65 W/m2
10:00 42.8 °F /  6 °C 41 °F /  5 °C 29.7in /  1006.4hPa WSW 4.9mph /  7.9km/h 10mph /  16.1km/h 93% 0in /  0.0mm 125 W/m2
10:05 43.2 °F /  6.2 °C 41.4 °F /  5.2 °C 29.7in /  1006.4hPa WNW 4.9mph /  7.9km/h 8mph /  12.9km/h 93% 0in /  0.0mm 156 W/m2
10:10 43.3 °F /  6.3 °C 41.5 °F /  5.3 °C 29.7in /  1006.8hPa WSW 4.9mph /  7.9km/h 9mph /  14.5km/h 93% 0in /  0.0mm 165 W/m2
10:15 43.5 °F /  6.4 °C 41.7 °F /  5.4 °C 29.7in /  1006.8hPa NW 4mph /  6.4km/h 9mph /  14.5km/h 93% 0in /  0.0mm 155 W/m2
10:20 43.5 °F /  6.4 °C 41.4 °F /  5.2 °C 29.7in /  1006.8hPa WSW 6.9mph /  11.1km/h 11mph /  17.7km/h 92% 0in /  0.0mm 153 W/m2
10:25 43.5 °F /  6.4 °C 41.4 °F /  5.2 °C 29.7in /  1006.8hPa WNW 6.9mph /  11.1km/h 10mph /  16.1km/h 92% 0in /  0.0mm 169 W/m2
10:34 44.1 °F /  6.7 °C 41.7 °F /  5.4 °C 29.7in /  1007.1hPa West 7.5mph /  12.1km/h 9mph /  14.5km/h 92% 0in /  0.0mm 163 W/m2
10:42 44.2 °F /  6.8 °C 41.7 °F /  5.4 °C 29.7in /  1007.1hPa WNW 6mph /  9.7km/h 6mph /  9.7km/h 91% 0in /  0.0mm 165 W/m2
10:47 44.4 °F /  6.9 °C 42.3 °F /  5.7 °C 29.7in /  1007.1hPa NW 2.9mph /  4.7km/h 9mph /  14.5km/h 92% 0in /  0.0mm 176 W/m2
10:52 44.4 °F /  6.9 °C 41.9 °F /  5.5 °C 29.7in /  1007.1hPa WNW 2mph /  3.2km/h 10mph /  16.1km/h 91% 0in /  0.0mm 178 W/m2
10:57 44.4 °F /  6.9 °C 41.9 °F /  5.5 °C 29.8in /  1007.5hPa West 4mph /  6.4km/h 10mph /  16.1km/h 91% 0in /  0.0mm 163 W/m2
11:02 44.8 °F /  7.1 °C 42.3 °F /  5.7 °C 29.8in /  1007.5hPa West 4mph /  6.4km/h 7mph /  11.3km/h 91% 0in /  0.0mm 162 W/m2
11:07 44.8 °F /  7.1 °C 42.3 °F /  5.7 °C 29.8in /  1007.5hPa WNW 4mph /  6.4km/h 9mph /  14.5km/h 91% 0in /  0.0mm 158 W/m2
11:12 44.6 °F /  7 °C 41.9 °F /  5.5 °C 29.8in /  1007.5hPa West 10.1mph /  16.3km/h 14mph /  22.5km/h 90% 0in /  0.0mm 153 W/m2
11:17 44.6 °F /  7 °C 42.1 °F /  5.6 °C 29.8in /  1007.5hPa West 6mph /  9.7km/h 10mph /  16.1km/h 91% 0in /  0.0mm 149 W/m2
11:22 44.8 °F /  7.1 °C 42.1 °F /  5.6 °C 29.8in /  1007.5hPa West 6mph /  9.7km/h 10mph /  16.1km/h 90% 0in /  0.0mm 158 W/m2
11:27 44.8 °F /  7.1 °C 42.3 °F /  5.7 °C 29.8in /  1007.8hPa WSW 13mph /  20.9km/h 13mph /  20.9km/h 91% 0in /  0.0mm 153 W/m2
11:32 44.8 °F /  7.1 °C 42.1 °F /  5.6 °C 29.8in /  1007.8hPa West 6mph /  9.7km/h 9mph /  14.5km/h 90% 0in /  0.0mm 155 W/m2
11:37 45 °F /  7.2 °C 42.4 °F /  5.8 °C 29.8in /  1007.8hPa West 6mph /  9.7km/h 13mph /  20.9km/h 91% 0in /  0.0mm 139 W/m2
11:42 45 °F /  7.2 °C 42.3 °F /  5.7 °C 29.8in /  1007.8hPa West 2.9mph /  4.7km/h 13mph /  20.9km/h 90% 0in /  0.0mm 120 W/m2
11:47 45 °F /  7.2 °C 42.4 °F /  5.8 °C 29.8in /  1007.8hPa WSW 4mph /  6.4km/h 7mph /  11.3km/h 91% 0in /  0.0mm 132 W/m2
11:52 45 °F /  7.2 °C 42.4 °F /  5.8 °C 29.8in /  1007.8hPa WNW 4.9mph /  7.9km/h 13mph /  20.9km/h 91% 0in /  0.0mm 105 W/m2
11:57 45 °F /  7.2 °C 42.4 °F /  5.8 °C 29.8in /  1007.8hPa WSW 4mph /  6.4km/h 6mph /  9.7km/h 91% 0in /  0.0mm 137 W/m2
12:02 44.8 °F /  7.1 °C 42.3 °F /  5.7 °C 29.8in /  1008.1hPa West 4mph /  6.4km/h 10mph /  16.1km/h 91% 0in /  0.0mm 132 W/m2
12:07 44.8 °F /  7.1 °C 42.3 °F /  5.7 °C 29.8in /  1008.1hPa West 2.9mph /  4.7km/h 8mph /  12.9km/h 91% 0in /  0.0mm 102 W/m2
12:12 44.8 °F /  7.1 °C 42.3 °F /  5.7 °C 29.8in /  1008.1hPa WNW 4.9mph /  7.9km/h 13mph /  20.9km/h 91% 0in /  0.0mm 116 W/m2
12:17 44.8 °F /  7.1 °C 42.3 °F /  5.7 °C 29.8in /  1008.1hPa NW 2.9mph /  4.7km/h 8mph /  12.9km/h 91% 0in /  0.0mm 111 W/m2
12:22 45 °F /  7.2 °C 42.4 °F /  5.8 °C 29.8in /  1008.1hPa West 4mph /  6.4km/h 13mph /  20.9km/h 91% 0in /  0.0mm 120 W/m2
12:27 45 °F /  7.2 °C 42.4 °F /  5.8 °C 29.8in /  1008.1hPa West 4mph /  6.4km/h 9mph /  14.5km/h 91% 0in /  0.0mm 120 W/m2
12:32 44.8 °F /  7.1 °C 42.3 °F /  5.7 °C 29.8in /  1008.1hPa WNW 4.9mph /  7.9km/h 10mph /  16.1km/h 91% 0in /  0.0mm 111 W/m2
12:37 44.8 °F /  7.1 °C 42.3 °F /  5.7 °C 29.8in /  1008.1hPa WNW 4.9mph /  7.9km/h 9mph /  14.5km/h 91% 0in /  0.0mm 98 W/m2
12:42 44.8 °F /  7.1 °C 42.3 °F /  5.7 °C 29.8in /  1008.1hPa West 4mph /  6.4km/h 10mph /  16.1km/h 91% 0in /  0.0mm 134 W/m2
12:47 44.8 °F /  7.1 °C 42.3 °F /  5.7 °C 29.8in /  1008.1hPa West 8.1mph /  13km/h 10mph /  16.1km/h 91% 0in /  0.0mm 104 W/m2
12:52 44.8 °F /  7.1 °C 42.3 °F /  5.7 °C 29.8in /  1008.1hPa West 6.9mph /  11.1km/h 9mph /  14.5km/h 91% 0in /  0.0mm 113 W/m2
12:57 44.8 °F /  7.1 °C 42.3 °F /  5.7 °C 29.8in /  1008.1hPa West 4mph /  6.4km/h 10mph /  16.1km/h 91% 0in /  0.0mm 120 W/m2
13:02 45 °F /  7.2 °C 42.8 °F /  6 °C 29.8in /  1008.5hPa WNW 4mph /  6.4km/h 8mph /  12.9km/h 92% 0in /  0.0mm 105 W/m2
13:07 45 °F /  7.2 °C 42.8 °F /  6 °C 29.8in /  1008.5hPa WNW 4mph /  6.4km/h 10mph /  16.1km/h 92% 0in /  0.0mm 109 W/m2
13:12 45 °F /  7.2 °C 42.4 °F /  5.8 °C 29.8in /  1008.5hPa NW 6mph /  9.7km/h 9mph /  14.5km/h 91% 0in /  0.0mm 93 W/m2
13:17 45.1 °F /  7.3 °C 42.6 °F /  5.9 °C 29.8in /  1008.5hPa NW 0.9mph /  1.4km/h 7mph /  11.3km/h 91% 0in /  0.0mm 74 W/m2
13:22 45.1 °F /  7.3 °C 42.6 °F /  5.9 °C 29.8in /  1008.5hPa WNW 4mph /  6.4km/h 7mph /  11.3km/h 91% 0in /  0.0mm 63 W/m2
13:27 45.1 °F /  7.3 °C 42.6 °F /  5.9 °C 29.8in /  1008.5hPa West 4mph /  6.4km/h 10mph /  16.1km/h 91% 0in /  0.0mm 70 W/m2
13:32 45.1 °F /  7.3 °C 42.6 °F /  5.9 °C 29.8in /  1008.5hPa WNW 4.9mph /  7.9km/h 6mph /  9.7km/h 91% 0in /  0.0mm 98 W/m2
13:37 45.3 °F /  7.4 °C 42.8 °F /  6 °C 29.8in /  1008.5hPa WNW 4.9mph /  7.9km/h 9mph /  14.5km/h 91% 0in /  0.0mm 111 W/m2
13:42 45.7 °F /  7.6 °C 43 °F /  6.1 °C 29.8in /  1008.5hPa NW 2mph /  3.2km/h 7mph /  11.3km/h 90% 0in /  0.0mm 111 W/m2
13:47 45.9 °F /  7.7 °C 43.2 °F /  6.2 °C 29.8in /  1008.5hPa West 2mph /  3.2km/h 6mph /  9.7km/h 90% 0in /  0.0mm 156 W/m2
13:52 46 °F /  7.8 °C 43.3 °F /  6.3 °C 29.8in /  1008.8hPa WSW 6.9mph /  11.1km/h 8mph /  12.9km/h 90% 0in /  0.0mm 179 W/m2
13:57 46.2 °F /  7.9 °C 43.5 °F /  6.4 °C 29.8in /  1008.5hPa SSW 2mph /  3.2km/h 7mph /  11.3km/h 90% 0in /  0.0mm 91 W/m2
14:02 46.2 °F /  7.9 °C 43.2 °F /  6.2 °C 29.8in /  1008.8hPa West 4mph /  6.4km/h 8mph /  12.9km/h 89% 0in /  0.0mm 84 W/m2
14:07 46.4 °F /  8 °C 43.3 °F /  6.3 °C 29.8in /  1008.8hPa SW 6mph /  9.7km/h 8mph /  12.9km/h 89% 0in /  0.0mm 148 W/m2
14:12 46.6 °F /  8.1 °C 43.5 °F /  6.4 °C 29.8in /  1008.8hPa WSW 10.1mph /  16.3km/h 10mph /  16.1km/h 89% 0in /  0.0mm 107 W/m2
14:17 46.6 °F /  8.1 °C 43.2 °F /  6.2 °C 29.8in /  1008.8hPa West 2mph /  3.2km/h 7mph /  11.3km/h 88% 0in /  0.0mm 130 W/m2
14:22 46.6 °F /  8.1 °C 43.2 °F /  6.2 °C 29.8in /  1008.8hPa WNW 6.9mph /  11.1km/h 9mph /  14.5km/h 88% 0in /  0.0mm 111 W/m2
14:27 46.6 °F /  8.1 °C 43.2 °F /  6.2 °C 29.8in /  1008.8hPa WSW 4mph /  6.4km/h 8mph /  12.9km/h 88% 0in /  0.0mm 88 W/m2
14:32 46.6 °F /  8.1 °C 43.2 °F /  6.2 °C 29.8in /  1008.8hPa West 2mph /  3.2km/h 8mph /  12.9km/h 88% 0in /  0.0mm 113 W/m2
14:37 46.6 °F /  8.1 °C 43.2 °F /  6.2 °C 29.8in /  1008.8hPa WNW 4mph /  6.4km/h 4mph /  6.4km/h 88% 0in /  0.0mm 98 W/m2
14:42 46.6 °F /  8.1 °C 43.2 °F /  6.2 °C 29.8in /  1008.8hPa NNW 0.9mph /  1.4km/h 7mph /  11.3km/h 88% 0in /  0.0mm 111 W/m2
14:47 46.6 °F /  8.1 °C 43 °F /  6.1 °C 29.8in /  1008.8hPa WNW 2.9mph /  4.7km/h 4mph /  6.4km/h 87% 0in /  0.0mm 60 W/m2
14:52 46.6 °F /  8.1 °C 43.2 °F /  6.2 °C 29.8in /  1009.1hPa NW 2mph /  3.2km/h 4mph /  6.4km/h 88% 0in /  0.0mm 58 W/m2
14:57 46.6 °F /  8.1 °C 43.2 °F /  6.2 °C 29.8in /  1009.1hPa West 2mph /  3.2km/h 5mph /  8km/h 88% 0in /  0.0mm 100 W/m2
15:02 46.6 °F /  8.1 °C 43.2 °F /  6.2 °C 29.8in /  1009.1hPa WSW 2.9mph /  4.7km/h 7mph /  11.3km/h 88% 0in /  0.0mm 120 W/m2
15:07 46.6 °F /  8.1 °C 43.2 °F /  6.2 °C 29.8in /  1009.1hPa West 4mph /  6.4km/h 8mph /  12.9km/h 88% 0in /  0.0mm 109 W/m2
15:12 46.6 °F /  8.1 °C 43.2 °F /  6.2 °C 29.8in /  1009.1hPa WSW 2mph /  3.2km/h 7mph /  11.3km/h 88% 0in /  0.0mm 70 W/m2
15:17 46.8 °F /  8.2 °C 43.3 °F /  6.3 °C 29.8in /  1009.1hPa NNW 2.9mph /  4.7km/h 8mph /  12.9km/h 88% 0in /  0.0mm 63 W/m2
15:22 46.6 °F /  8.1 °C 43.2 °F /  6.2 °C 29.8in /  1009.1hPa West 6mph /  9.7km/h 8mph /  12.9km/h 88% 0in /  0.0mm 63 W/m2
15:27 46.4 °F /  8 °C 42.8 °F /  6 °C 29.8in /  1009.1hPa NW 2mph /  3.2km/h 4mph /  6.4km/h 87% 0in /  0.0mm 81 W/m2
15:33 46.2 °F /  7.9 °C 42.6 °F /  5.9 °C 29.8in /  1009.1hPa NW 4mph /  6.4km/h 10mph /  16.1km/h 87% 0in /  0.0mm 98 W/m2
15:38 46 °F /  7.8 °C 42.4 °F /  5.8 °C 29.8in /  1009.1hPa SW 2.9mph /  4.7km/h 5mph /  8km/h 87% 0in /  0.0mm 98 W/m2
15:43 46 °F /  7.8 °C 42.4 °F /  5.8 °C 29.8in /  1009.5hPa NW 2mph /  3.2km/h 4mph /  6.4km/h 87% 0in /  0.0mm 47 W/m2
15:48 46 °F /  7.8 °C 42.4 °F /  5.8 °C 29.8in /  1009.5hPa WNW 2mph /  3.2km/h 4mph /  6.4km/h 87% 0in /  0.0mm 53 W/m2
15:53 45.9 °F /  7.7 °C 42.3 °F /  5.7 °C 29.8in /  1009.5hPa West 6mph /  9.7km/h 6mph /  9.7km/h 87% 0in /  0.0mm 30 W/m2
15:58 45.9 °F /  7.7 °C 42.3 °F /  5.7 °C 29.8in /  1009.8hPa West 4mph /  6.4km/h 8mph /  12.9km/h 87% 0in /  0.0mm 28 W/m2
16:03 45.7 °F /  7.6 °C 42.3 °F /  5.7 °C 29.8in /  1009.8hPa West 2.9mph /  4.7km/h 10mph /  16.1km/h 88% 0in /  0.0mm 19 W/m2
16:08 45.5 °F /  7.5 °C 42.1 °F /  5.6 °C 29.8in /  1009.8hPa NW 2mph /  3.2km/h 7mph /  11.3km/h 88% 0in /  0.0mm 21 W/m2
16:13 45.3 °F /  7.4 °C 41.9 °F /  5.5 °C 29.8in /  1009.8hPa West 6.9mph /  11.1km/h 8mph /  12.9km/h 88% 0in /  0.0mm 14 W/m2
16:18 45.3 °F /  7.4 °C 42.3 °F /  5.7 °C 29.8in /  1010.2hPa WNW 2.9mph /  4.7km/h 10mph /  16.1km/h 89% 0in /  0.0mm 9 W/m2
16:23 45.1 °F /  7.3 °C 42.1 °F /  5.6 °C 29.8in /  1010.2hPa NW 2.9mph /  4.7km/h 6mph /  9.7km/h 89% 0in /  0.0mm 9 W/m2
16:28 45 °F /  7.2 °C 42.3 °F /  5.7 °C 29.8in /  1010.2hPa WNW 2mph /  3.2km/h 8mph /  12.9km/h 90% 0in /  0.0mm 7 W/m2
16:33 45 °F /  7.2 °C 42.3 °F /  5.7 °C 29.8in /  1010.2hPa West 4mph /  6.4km/h 7mph /  11.3km/h 90% 0in /  0.0mm 7 W/m2
16:38 44.8 °F /  7.1 °C 42.1 °F /  5.6 °C 29.8in /  1010.2hPa West 2mph /  3.2km/h 10mph /  16.1km/h 90% 0in /  0.0mm 5 W/m2
16:43 44.6 °F /  7 °C 41.9 °F /  5.5 °C 29.8in /  1010.2hPa West 2mph /  3.2km/h 7mph /  11.3km/h 90% 0in /  0.0mm 0 W/m2
16:48 44.4 °F /  6.9 °C 41.7 °F /  5.4 °C 29.8in /  1010.2hPa WNW 2mph /  3.2km/h 10mph /  16.1km/h 90% 0in /  0.0mm 0 W/m2
16:53 44.4 °F /  6.9 °C 41.7 °F /  5.4 °C 29.8in /  1010.5hPa NNW 2.9mph /  4.7km/h 8mph /  12.9km/h 90% 0in /  0.0mm 0 W/m2
16:58 44.2 °F /  6.8 °C 41.5 °F /  5.3 °C 29.8in /  1010.5hPa WNW 2.9mph /  4.7km/h 9mph /  14.5km/h 90% 0in /  0.0mm 0 W/m2
17:03 44.2 °F /  6.8 °C 41.5 °F /  5.3 °C 29.8in /  1010.5hPa WNW 4mph /  6.4km/h 6mph /  9.7km/h 90% 0in /  0.0mm 0 W/m2
17:08 44.2 °F /  6.8 °C 41.7 °F /  5.4 °C 29.8in /  1010.5hPa West 4mph /  6.4km/h 7mph /  11.3km/h 91% 0in /  0.0mm 0 W/m2
17:13 44.1 °F /  6.7 °C 41.5 °F /  5.3 °C 29.8in /  1010.5hPa WSW 0.9mph /  1.4km/h 4mph /  6.4km/h 91% 0in /  0.0mm 0 W/m2
17:18 44.1 °F /  6.7 °C 41.5 °F /  5.3 °C 29.8in /  1010.5hPa West 2.9mph /  4.7km/h 6mph /  9.7km/h 91% 0in /  0.0mm 0 W/m2
17:23 44.1 °F /  6.7 °C 41.9 °F /  5.5 °C 29.9in /  1010.8hPa WSW 0.9mph /  1.4km/h 4mph /  6.4km/h 92% 0in /  0.0mm 0 W/m2
17:28 43.9 °F /  6.6 °C 41.7 °F /  5.4 °C 29.9in /  1010.8hPa NW 2.9mph /  4.7km/h 4mph /  6.4km/h 92% 0in /  0.0mm 0 W/m2
17:33 43.9 °F /  6.6 °C 41.7 °F /  5.4 °C 29.9in /  1010.8hPa West 0.9mph /  1.4km/h 7mph /  11.3km/h 92% 0in /  0.0mm 0 W/m2
17:38 43.9 °F /  6.6 °C 41.7 °F /  5.4 °C 29.9in /  1010.8hPa West 4mph /  6.4km/h 6mph /  9.7km/h 92% 0in /  0.0mm 0 W/m2
17:43 43.9 °F /  6.6 °C 41.9 °F /  5.5 °C 29.9in /  1010.8hPa WNW 4.9mph /  7.9km/h 7mph /  11.3km/h 93% 0in /  0.0mm 0 W/m2
17:48 43.7 °F /  6.5 °C 41.7 °F /  5.4 °C 29.9in /  1010.8hPa Calm   6mph /  9.7km/h 93% 0in /  0.0mm 0 W/m2
17:53 43.9 °F /  6.6 °C 41.9 °F /  5.5 °C 29.9in /  1010.8hPa West 0.9mph /  1.4km/h 5mph /  8km/h 93% 0in /  0.0mm 0 W/m2
17:58 43.9 °F /  6.6 °C 41.9 °F /  5.5 °C 29.9in /  1011.2hPa West 2mph /  3.2km/h 5mph /  8km/h 93% 0in /  0.0mm 0 W/m2
18:03 43.7 °F /  6.5 °C 41.7 °F /  5.4 °C 29.9in /  1011.2hPa WNW 2.9mph /  4.7km/h 3mph /  4.8km/h 93% 0in /  0.0mm 0 W/m2
18:08 43.7 °F /  6.5 °C 41.7 °F /  5.4 °C 29.9in /  1011.2hPa West 2mph /  3.2km/h 5mph /  8km/h 93% 0in /  0.0mm 0 W/m2
18:13 43.9 °F /  6.6 °C 41.9 °F /  5.5 °C 29.9in /  1011.2hPa West 2.9mph /  4.7km/h 3mph /  4.8km/h 93% 0in /  0.0mm 0 W/m2
18:18 43.9 °F /  6.6 °C 41.9 °F /  5.5 °C 29.9in /  1011.2hPa Calm   3mph /  4.8km/h 93% 0in /  0.0mm 0 W/m2
18:23 43.9 °F /  6.6 °C 42.3 °F /  5.7 °C 29.9in /  1011.5hPa Calm   3mph /  4.8km/h 94% 0in /  0.0mm 0 W/m2
18:28 43.9 °F /  6.6 °C 42.3 °F /  5.7 °C 29.9in /  1011.2hPa NE 2mph /  3.2km/h 3mph /  4.8km/h 94% 0in /  0.0mm 0 W/m2
18:33 43.9 °F /  6.6 °C 42.3 °F /  5.7 °C 29.9in /  1011.5hPa WSW 0.9mph /  1.4km/h 3mph /  4.8km/h 94% 0in /  0.0mm 0 W/m2
18:38 43.9 °F /  6.6 °C 42.3 °F /  5.7 °C 29.9in /  1011.5hPa West 2mph /  3.2km/h 4mph /  6.4km/h 94% 0in /  0.0mm 0 W/m2
18:43 44.1 °F /  6.7 °C 42.4 °F /  5.8 °C 29.9in /  1011.5hPa NW 2mph /  3.2km/h 6mph /  9.7km/h 94% 0in /  0.0mm 0 W/m2
18:48 44.1 °F /  6.7 °C 42.4 °F /  5.8 °C 29.9in /  1011.9hPa Calm   2mph /  3.2km/h 94% 0in /  0.0mm 0 W/m2
18:53 44.1 °F /  6.7 °C 42.4 °F /  5.8 °C 29.9in /  1011.9hPa WNW 2mph /  3.2km/h 2mph /  3.2km/h 94% 0in /  0.0mm 0 W/m2
18:58 44.1 °F /  6.7 °C 42.4 °F /  5.8 °C 29.9in /  1011.9hPa WSW 0.9mph /  1.4km/h 2mph /  3.2km/h 94% 0in /  0.0mm 0 W/m2
19:03 44.1 °F /  6.7 °C 42.4 °F /  5.8 °C 29.9in /  1011.9hPa Calm     94% 0in /  0.0mm 0 W/m2
19:08 44.1 °F /  6.7 °C 42.4 °F /  5.8 °C 29.9in /  1011.9hPa Calm   1mph /  1.6km/h 94% 0in /  0.0mm 0 W/m2
19:13 44.1 °F /  6.7 °C 42.4 °F /  5.8 °C 29.9in /  1011.9hPa NW 2.9mph /  4.7km/h 4mph /  6.4km/h 94% 0in /  0.0mm 0 W/m2
19:18 44.1 °F /  6.7 °C 42.4 °F /  5.8 °C 29.9in /  1011.9hPa WNW 2mph /  3.2km/h 4mph /  6.4km/h 94% 0in /  0.0mm 0 W/m2
19:23 44.2 °F /  6.8 °C 42.6 °F /  5.9 °C 29.9in /  1011.9hPa West 4mph /  6.4km/h 4mph /  6.4km/h 94% 0in /  0.0mm 0 W/m2
19:28 44.1 °F /  6.7 °C 42.4 °F /  5.8 °C 29.9in /  1011.9hPa WNW 2mph /  3.2km/h 4mph /  6.4km/h 94% 0in /  0.0mm 0 W/m2
19:33 44.2 °F /  6.8 °C 42.6 °F /  5.9 °C 29.9in /  1011.9hPa NW 2mph /  3.2km/h 2mph /  3.2km/h 94% 0in /  0.0mm 0 W/m2
19:38 44.2 °F /  6.8 °C 42.6 °F /  5.9 °C 29.9in /  1011.9hPa Calm   1mph /  1.6km/h 94% 0in /  0.0mm 0 W/m2
19:43 44.2 °F /  6.8 °C 42.6 °F /  5.9 °C 29.9in /  1012.2hPa North 2.9mph /  4.7km/h 3mph /  4.8km/h 94% 0in /  0.0mm 0 W/m2
19:48 44.2 °F /  6.8 °C 42.6 °F /  5.9 °C 29.9in /  1012.2hPa WNW 2mph /  3.2km/h 3mph /  4.8km/h 94% 0in /  0.0mm 0 W/m2
19:53 44.2 °F /  6.8 °C 42.6 °F /  5.9 °C 29.9in /  1012.2hPa ENE 0.9mph /  1.4km/h 1mph /  1.6km/h 94% 0in /  0.0mm 0 W/m2
19:58 44.2 °F /  6.8 °C 42.6 °F /  5.9 °C 29.9in /  1012.2hPa WNW 0.9mph /  1.4km/h 3mph /  4.8km/h 94% 0in /  0.0mm 0 W/m2
20:03 44.2 °F /  6.8 °C 42.6 °F /  5.9 °C 29.9in /  1012.2hPa Calm   1mph /  1.6km/h 94% 0in /  0.0mm 0 W/m2
20:08 44.2 °F /  6.8 °C 42.6 °F /  5.9 °C 29.9in /  1012.2hPa Calm   4mph /  6.4km/h 94% 0in /  0.0mm 0 W/m2
20:13 44.2 °F /  6.8 °C 42.6 °F /  5.9 °C 29.9in /  1012.2hPa Calm   4mph /  6.4km/h 94% 0in /  0.0mm 0 W/m2
20:18 44.4 °F /  6.9 °C 42.8 °F /  6 °C 29.9in /  1012.2hPa WNW 2mph /  3.2km/h 5mph /  8km/h 94% 0in /  0.0mm 0 W/m2
20:23 44.4 °F /  6.9 °C 42.8 °F /  6 °C 29.9in /  1012.2hPa Calm   3mph /  4.8km/h 94% 0in /  0.0mm 0 W/m2
20:28 44.4 °F /  6.9 °C 42.8 °F /  6 °C 29.9in /  1012.2hPa WNW 2.9mph /  4.7km/h 10mph /  16.1km/h 94% 0in /  0.0mm 0 W/m2
20:33 44.4 °F /  6.9 °C 42.8 °F /  6 °C 29.9in /  1012.2hPa West 4mph /  6.4km/h 5mph /  8km/h 94% 0in /  0.0mm 0 W/m2
20:38 44.4 °F /  6.9 °C 42.8 °F /  6 °C 29.9in /  1012.2hPa West 2mph /  3.2km/h 4mph /  6.4km/h 94% 0in /  0.0mm 0 W/m2
20:43 44.4 °F /  6.9 °C 42.8 °F /  6 °C 29.9in /  1012.5hPa WNW 2mph /  3.2km/h 8mph /  12.9km/h 94% 0in /  0.0mm 0 W/m2
20:48 44.4 °F /  6.9 °C 42.8 °F /  6 °C 29.9in /  1012.5hPa WNW 2mph /  3.2km/h 4mph /  6.4km/h 94% 0in /  0.0mm 0 W/m2
20:53 44.4 °F /  6.9 °C 42.8 °F /  6 °C 29.9in /  1012.5hPa WNW 2.9mph /  4.7km/h 4mph /  6.4km/h 94% 0in /  0.0mm 0 W/m2
20:58 44.4 °F /  6.9 °C 42.8 °F /  6 °C 29.9in /  1012.5hPa WSW 4mph /  6.4km/h 4mph /  6.4km/h 94% 0in /  0.0mm 0 W/m2
21:03 44.4 °F /  6.9 °C 42.8 °F /  6 °C 29.9in /  1012.5hPa WNW 2.9mph /  4.7km/h 5mph /  8km/h 94% 0in /  0.0mm 0 W/m2
21:08 44.4 °F /  6.9 °C 42.8 °F /  6 °C 29.9in /  1012.5hPa WNW 0.9mph /  1.4km/h 3mph /  4.8km/h 94% 0in /  0.0mm 0 W/m2
21:13 44.4 °F /  6.9 °C 42.8 °F /  6 °C 29.9in /  1012.9hPa NW 2.9mph /  4.7km/h 6mph /  9.7km/h 94% 0in /  0.0mm 0 W/m2
21:18 44.4 °F /  6.9 °C 42.8 °F /  6 °C 29.9in /  1012.9hPa SW 2mph /  3.2km/h 6mph /  9.7km/h 94% 0in /  0.0mm 0 W/m2
21:23 44.4 °F /  6.9 °C 42.8 °F /  6 °C 29.9in /  1012.9hPa WNW 2mph /  3.2km/h 5mph /  8km/h 94% 0in /  0.0mm 0 W/m2
21:28 44.4 °F /  6.9 °C 42.8 °F /  6 °C 29.9in /  1012.9hPa West 0.9mph /  1.4km/h 5mph /  8km/h 94% 0in /  0.0mm 0 W/m2
21:33 44.4 °F /  6.9 °C 42.8 °F /  6 °C 29.9in /  1012.9hPa West 2mph /  3.2km/h 4mph /  6.4km/h 94% 0in /  0.0mm 0 W/m2
21:38 44.6 °F /  7 °C 43 °F /  6.1 °C 29.9in /  1012.9hPa SW 2mph /  3.2km/h 6mph /  9.7km/h 94% 0in /  0.0mm 0 W/m2
21:43 44.4 °F /  6.9 °C 42.8 °F /  6 °C 29.9in /  1012.9hPa West 2mph /  3.2km/h 2mph /  3.2km/h 94% 0in /  0.0mm 0 W/m2
21:48 44.4 °F /  6.9 °C 42.8 °F /  6 °C 29.9in /  1012.9hPa WNW 2.9mph /  4.7km/h 6mph /  9.7km/h 94% 0in /  0.0mm 0 W/m2
21:53 44.4 °F /  6.9 °C 42.8 °F /  6 °C 29.9in /  1012.9hPa West 0.9mph /  1.4km/h 5mph /  8km/h 94% 0in /  0.0mm 0 W/m2
21:58 44.4 °F /  6.9 °C 42.8 °F /  6 °C 29.9in /  1012.9hPa NW 2mph /  3.2km/h 7mph /  11.3km/h 94% 0in /  0.0mm 0 W/m2
22:03 44.4 °F /  6.9 °C 42.8 °F /  6 °C 29.9in /  1013.2hPa West 2mph /  3.2km/h 4mph /  6.4km/h 94% 0in /  0.0mm 0 W/m2
22:08 44.4 °F /  6.9 °C 42.8 °F /  6 °C 29.9in /  1013.2hPa WNW 2mph /  3.2km/h 7mph /  11.3km/h 94% 0in /  0.0mm 0 W/m2
22:13 44.4 °F /  6.9 °C 42.8 °F /  6 °C 29.9in /  1013.2hPa WNW 2mph /  3.2km/h 6mph /  9.7km/h 94% 0in /  0.0mm 0 W/m2
22:18 44.4 °F /  6.9 °C 42.8 °F /  6 °C 29.9in /  1013.2hPa West 2mph /  3.2km/h 6mph /  9.7km/h 94% 0in /  0.0mm 0 W/m2
22:23 44.4 °F /  6.9 °C 42.8 °F /  6 °C 29.9in /  1013.2hPa WNW 2.9mph /  4.7km/h 5mph /  8km/h 94% 0in /  0.0mm 0 W/m2
22:28 44.4 °F /  6.9 °C 42.8 °F /  6 °C 29.9in /  1013.2hPa WSW 0.9mph /  1.4km/h 4mph /  6.4km/h 94% 0in /  0.0mm 0 W/m2
22:33 44.4 °F /  6.9 °C 42.8 °F /  6 °C 29.9in /  1013.5hPa WNW 2.9mph /  4.7km/h 7mph /  11.3km/h 94% 0in /  0.0mm 0 W/m2
22:38 44.4 °F /  6.9 °C 42.8 °F /  6 °C 29.9in /  1013.5hPa WNW 2mph /  3.2km/h 4mph /  6.4km/h 94% 0in /  0.0mm 0 W/m2
22:43 44.4 °F /  6.9 °C 42.8 °F /  6 °C 29.9in /  1013.5hPa WNW 2mph /  3.2km/h 5mph /  8km/h 94% 0in /  0.0mm 0 W/m2
22:48 44.6 °F /  7 °C 43 °F /  6.1 °C 29.9in /  1013.5hPa WSW 4mph /  6.4km/h 7mph /  11.3km/h 94% 0in /  0.0mm 0 W/m2
22:53 44.6 °F /  7 °C 43 °F /  6.1 °C 29.9in /  1013.5hPa WNW 2mph /  3.2km/h 7mph /  11.3km/h 94% 0in /  0.0mm 0 W/m2
22:58 44.6 °F /  7 °C 43 °F /  6.1 °C 29.9in /  1013.5hPa West 2.9mph /  4.7km/h 5mph /  8km/h 94% 0in /  0.0mm 0 W/m2
23:03 44.4 °F /  6.9 °C 42.8 °F /  6 °C 29.9in /  1013.5hPa WSW 4mph /  6.4km/h 9mph /  14.5km/h 94% 0.01in /  0.2mm 0 W/m2
23:08 44.4 °F /  6.9 °C 42.8 °F /  6 °C 29.9in /  1013.5hPa WNW 0.9mph /  1.4km/h 6mph /  9.7km/h 94% 0.01in /  0.2mm 0 W/m2
23:13 44.4 °F /  6.9 °C 42.8 °F /  6 °C 29.9in /  1013.5hPa WNW 2mph /  3.2km/h 6mph /  9.7km/h 94% 0.01in /  0.2mm 0 W/m2
23:18 44.4 °F /  6.9 °C 42.8 °F /  6 °C 29.9in /  1013.5hPa West 2mph /  3.2km/h 5mph /  8km/h 94% 0.01in /  0.2mm 0 W/m2
23:23 44.4 °F /  6.9 °C 42.8 °F /  6 °C 29.9in /  1013.5hPa West 4mph /  6.4km/h 8mph /  12.9km/h 94% 0.01in /  0.2mm 0 W/m2
23:28 44.4 °F /  6.9 °C 43.2 °F /  6.2 °C 29.9in /  1013.5hPa WNW 2.9mph /  4.7km/h 8mph /  12.9km/h 95% 0.01in /  0.2mm 0 W/m2
23:33 44.6 °F /  7 °C 43.3 °F /  6.3 °C 29.9in /  1013.5hPa WNW 0.9mph /  1.4km/h 7mph /  11.3km/h 95% 0.01in /  0.2mm 0 W/m2
23:38 44.6 °F /  7 °C 43.3 °F /  6.3 °C 29.9in /  1013.9hPa West 0.9mph /  1.4km/h 5mph /  8km/h 95% 0.01in /  0.2mm 0 W/m2
23:43 44.6 °F /  7 °C 43.3 °F /  6.3 °C 29.9in /  1013.9hPa West 2mph /  3.2km/h 7mph /  11.3km/h 95% 0.01in /  0.2mm 0 W/m2
23:48 44.6 °F /  7 °C 43.3 °F /  6.3 °C 29.9in /  1013.9hPa Calm   5mph /  8km/h 95% 0.01in /  0.2mm 0 W/m2
23:54 44.6 °F /  7 °C 43.3 °F /  6.3 °C 29.9in /  1013.9hPa West 2mph /  3.2km/h 6mph /  9.7km/h 95% 0.01in /  0.2mm 0 W/m2
23:59 44.6 °F /  7 °C 43.3 °F /  6.3 °C 30in /  1014.2hPa West 2.9mph /  4.7km/h 3mph /  4.8km/h 95% 0.01in /  0.2mm 0 W/m2
Juneau County Weather
Compliments of Weather Underground - 4 mb